Time;durP1;ratioP1;P1;durP2;ratioP2;P2;SDS_P1;SDS_P2;PMS_P1;PMS_P2;Temp;Humidity;BMP_temperature;BMP_pressure;BME280_temperature;BME280_humidity;BME280_pressure;Samples;Min_cycle;Max_cycle;Signal;HPM_P1;HPM_P2
2024/04/18 00:00:05;;;;;;;13.10;10.83;;;9.70;99.90;;;;;;5417194;26;20584;-62
2024/04/18 00:02:31;;;;;;;13.60;11.30;;;9.70;99.90;;;;;;5416035;26;20259;-62
2024/04/18 00:04:57;;;;;;;13.20;11.77;;;9.70;99.90;;;;;;5416905;26;20457;-62
2024/04/18 00:07:22;;;;;;;13.63;12.10;;;9.80;99.90;;;;;;5416488;26;20269;-62
2024/04/18 00:09:48;;;;;;;13.50;11.80;;;9.80;99.90;;;;;;5416743;26;20920;-62
2024/04/18 00:12:14;;;;;;;13.57;11.97;;;9.80;99.90;;;;;;5416839;26;20282;-62
2024/04/18 00:14:40;;;;;;;13.50;12.10;;;9.80;99.90;;;;;;5415765;26;20605;-62
2024/04/18 00:17:05;;;;;;;12.33;11.03;;;9.80;99.90;;;;;;5416425;26;20285;-62
2024/04/18 00:19:31;;;;;;;12.50;10.77;;;9.80;99.90;;;;;;5442816;26;20235;-61
2024/04/18 00:21:58;;;;;;;12.30;10.77;;;9.80;99.90;;;;;;5420967;26;20234;-62
2024/04/18 00:24:24;;;;;;;12.60;10.93;;;9.80;99.90;;;;;;5451601;26;20284;-61
2024/04/18 00:26:49;;;;;;;13.10;11.60;;;9.80;99.90;;;;;;5452082;26;20446;-62
2024/04/18 00:29:15;;;;;;;13.47;11.90;;;9.80;99.90;;;;;;5452451;26;20232;-62
2024/04/18 00:31:41;;;;;;;12.60;10.10;;;9.80;99.90;;;;;;5451395;26;20276;-62
2024/04/18 00:34:07;;;;;;;11.63;10.17;;;9.80;99.90;;;;;;5419027;26;20254;-62
2024/04/18 00:36:32;;;;;;;11.90;10.80;;;9.80;99.90;;;;;;5451481;26;20709;-62
2024/04/18 00:38:58;;;;;;;12.27;10.23;;;9.80;99.90;;;;;;5452042;26;20231;-62
2024/04/18 00:41:24;;;;;;;11.47;10.33;;;9.80;99.90;;;;;;5450913;26;20307;-61
2024/04/18 00:43:49;;;;;;;11.73;10.60;;;9.80;99.90;;;;;;5452229;26;20240;-62
2024/04/18 00:46:15;;;;;;;10.50;9.50;;;9.80;99.90;;;;;;5451274;26;20229;-62
2024/04/18 00:48:41;;;;;;;11.47;10.30;;;9.90;99.90;;;;;;5450973;26;20836;-62
2024/04/18 00:51:07;;;;;;;12.07;10.17;;;9.90;99.90;;;;;;5452122;26;20451;-62
2024/04/18 00:53:34;;;;;;;10.77;9.77;;;9.90;99.90;;;;;;5450796;26;20493;-62
2024/04/18 00:56:00;;;;;;;11.03;9.80;;;9.90;99.90;;;;;;5420518;26;20340;-62
2024/04/18 00:58:26;;;;;;;11.30;10.20;;;9.90;99.90;;;;;;5419189;26;20460;-62
2024/04/18 01:00:53;;;;;;;9.30;8.40;;;9.90;99.90;;;;;;5451489;26;20532;-62
2024/04/18 01:03:19;;;;;;;8.20;7.40;;;9.90;99.90;;;;;;5419892;26;20551;-62
2024/04/18 01:05:45;;;;;;;9.17;8.33;;;9.90;99.90;;;;;;5450612;26;20436;-62
2024/04/18 01:08:11;;;;;;;7.77;7.07;;;9.90;99.90;;;;;;5451134;26;20491;-62
2024/04/18 01:10:37;;;;;;;8.07;7.10;;;9.90;99.90;;;;;;5450663;26;20451;-62
2024/04/18 01:13:02;;;;;;;8.13;7.33;;;9.90;99.90;;;;;;5451125;26;20230;-62
2024/04/18 01:15:28;;;;;;;8.53;7.63;;;10.00;99.90;;;;;;5450388;26;20754;-62
2024/04/18 01:17:55;;;;;;;7.23;6.73;;;10.00;99.90;;;;;;5447211;26;20732;-62
2024/04/18 01:20:22;;;;;;;7.93;7.13;;;10.00;99.90;;;;;;5415661;26;20502;-62
2024/04/18 01:22:48;;;;;;;7.10;6.50;;;10.00;99.90;;;;;;5414851;26;21039;-62
2024/04/18 01:25:14;;;;;;;7.40;6.80;;;10.00;99.90;;;;;;5415271;26;20443;-62
2024/04/18 01:27:39;;;;;;;8.27;7.57;;;10.00;99.90;;;;;;5383443;26;20756;-61
2024/04/18 01:30:06;;;;;;;7.57;6.97;;;10.00;99.90;;;;;;5414887;26;20274;-62
2024/04/18 01:32:35;;;;;;;8.33;7.70;;;10.00;99.90;;;;;;5382998;26;20238;-62
2024/04/18 01:35:02;;;;;;;7.83;7.03;;;10.00;99.90;;;;;;5415284;26;20440;-63
2024/04/18 01:37:28;;;;;;;7.70;7.00;;;10.00;99.90;;;;;;5414182;26;20573;-62
2024/04/18 01:39:53;;;;;;;7.83;7.23;;;10.00;99.90;;;;;;5383413;26;20455;-61
2024/04/18 01:42:19;;;;;;;8.00;7.27;;;10.00;99.90;;;;;;5415379;26;20236;-62
2024/04/18 01:44:46;;;;;;;7.73;7.03;;;10.00;99.90;;;;;;5413949;26;20238;-62
2024/04/18 01:47:12;;;;;;;9.80;7.93;;;10.00;99.90;;;;;;5418068;26;20526;-61
2024/04/18 01:49:38;;;;;;;8.43;7.73;;;10.00;99.90;;;;;;5417874;26;20552;-62
2024/04/18 01:52:07;;;;;;;8.27;7.67;;;10.10;99.90;;;;;;5418326;26;21057;-62
2024/04/18 01:54:33;;;;;;;9.07;8.23;;;10.10;99.90;;;;;;5417442;26;20490;-62
2024/04/18 01:56:59;;;;;;;8.43;7.60;;;10.10;99.90;;;;;;5418517;26;21034;-61
2024/04/18 01:59:25;;;;;;;8.77;7.67;;;10.20;99.90;;;;;;5417099;26;20449;-61
2024/04/18 02:01:52;;;;;;;9.53;8.63;;;10.20;99.90;;;;;;5418289;26;20999;-61
2024/04/18 02:04:18;;;;;;;9.77;8.53;;;10.10;99.90;;;;;;5418087;26;20294;-61
2024/04/18 02:06:44;;;;;;;8.87;8.17;;;10.10;99.90;;;;;;5381466;26;21003;-61
2024/04/18 02:09:10;;;;;;;8.77;8.07;;;10.10;99.90;;;;;;5418134;26;20230;-62
2024/04/18 02:11:39;;;;;;;10.20;9.40;;;10.10;99.90;;;;;;5417706;26;21031;-62
2024/04/18 02:14:05;;;;;;;9.57;8.67;;;10.20;99.90;;;;;;5418288;26;20235;-61
2024/04/18 02:16:31;;;;;;;9.20;8.40;;;10.10;99.90;;;;;;5385866;26;20453;-61
2024/04/18 02:18:56;;;;;;;8.47;7.67;;;10.10;99.90;;;;;;5436809;26;20250;-61
2024/04/18 02:21:22;;;;;;;10.40;9.40;;;10.10;99.90;;;;;;5453803;26;20236;-62
2024/04/18 02:23:48;;;;;;;10.17;9.27;;;10.00;99.90;;;;;;5453564;26;20234;-62
2024/04/18 02:26:13;;;;;;;10.07;9.07;;;10.00;99.90;;;;;;5453967;26;20230;-62
2024/04/18 02:28:39;;;;;;;10.53;9.60;;;10.10;99.90;;;;;;5453008;26;20320;-62
2024/04/18 02:31:05;;;;;;;9.63;8.80;;;10.10;99.90;;;;;;5454046;26;20228;-62
2024/04/18 02:33:32;;;;;;;11.63;10.53;;;10.10;99.90;;;;;;5453093;26;20768;-62
2024/04/18 02:35:57;;;;;;;11.20;10.10;;;10.10;99.90;;;;;;5453584;26;20891;-62
2024/04/18 02:38:23;;;;;;;9.70;8.70;;;10.10;99.90;;;;;;5454045;26;20446;-62
2024/04/18 02:40:49;;;;;;;11.93;10.93;;;10.20;99.90;;;;;;5452968;26;20308;-62
2024/04/18 02:43:14;;;;;;;12.13;10.70;;;10.20;99.90;;;;;;5453307;26;20303;-62
2024/04/18 02:45:41;;;;;;;11.77;10.67;;;10.10;99.90;;;;;;5452959;26;20231;-62
2024/04/18 02:48:06;;;;;;;12.20;11.00;;;10.10;99.90;;;;;;5453429;26;20604;-63
2024/04/18 02:50:32;;;;;;;13.00;11.60;;;10.20;99.90;;;;;;5452620;26;20515;-61
2024/04/18 02:52:58;;;;;;;12.40;11.10;;;10.10;99.90;;;;;;5453646;26;20244;-62
2024/04/18 02:55:24;;;;;;;12.80;11.50;;;10.10;99.90;;;;;;5453421;26;20505;-62
2024/04/18 02:57:49;;;;;;;12.20;10.97;;;10.10;99.90;;;;;;5451956;26;20606;-62
2024/04/18 03:00:15;;;;;;;12.33;11.23;;;10.10;99.90;;;;;;5453246;26;20233;-62
2024/04/18 03:02:41;;;;;;;13.10;11.10;;;10.10;99.90;;;;;;5421465;26;20570;-62
2024/04/18 03:05:07;;;;;;;12.73;11.53;;;10.10;99.90;;;;;;5452874;26;20505;-62
2024/04/18 03:07:32;;;;;;;11.73;10.60;;;10.10;99.90;;;;;;5452533;26;20810;-61
2024/04/18 03:09:58;;;;;;;11.93;10.73;;;10.20;99.90;;;;;;5453469;26;20247;-62
2024/04/18 03:12:24;;;;;;;10.70;9.60;;;10.20;99.90;;;;;;5452814;26;20241;-62
2024/04/18 03:14:50;;;;;;;10.87;9.77;;;10.10;99.90;;;;;;5452997;26;20247;-62
2024/04/18 03:17:15;;;;;;;10.43;9.43;;;10.10;99.90;;;;;;5452495;26;20437;-62
2024/04/18 03:19:41;;;;;;;9.80;8.83;;;10.10;99.90;;;;;;5452732;26;20281;-62
2024/04/18 03:22:07;;;;;;;11.37;10.30;;;10.10;99.90;;;;;;5386139;26;20602;-62
2024/04/18 03:24:33;;;;;;;10.40;9.33;;;10.10;99.90;;;;;;5449216;26;20234;-62
2024/04/18 03:26:58;;;;;;;11.90;10.40;;;10.10;99.90;;;;;;5452625;26;20226;-62
2024/04/18 03:29:24;;;;;;;11.07;9.87;;;10.10;99.90;;;;;;5452981;26;20560;-61
2024/04/18 03:31:51;;;;;;;10.97;9.97;;;10.10;99.90;;;;;;5452726;26;20240;-62
2024/04/18 03:34:16;;;;;;;10.90;9.80;;;10.00;99.90;;;;;;5452716;26;20241;-62
2024/04/18 03:36:51;;;;;;;11.13;10.00;;;10.00;99.90;;;;;;5452025;26;21120;-62
2024/04/18 03:39:21;;;;;;;9.67;8.67;;;10.00;99.90;;;;;;5453321;26;20586;-62
2024/04/18 03:41:47;;;;;;;10.43;9.43;;;10.00;99.90;;;;;;5452018;26;20556;-62
2024/04/18 03:44:13;;;;;;;8.17;7.43;;;10.00;99.90;;;;;;5421207;26;20784;-62
2024/04/18 03:46:39;;;;;;;8.43;7.53;;;10.00;99.90;;;;;;5452431;26;20541;-62
2024/04/18 03:49:07;;;;;;;9.33;8.33;;;10.00;99.90;;;;;;5452437;26;20453;-62
2024/04/18 03:51:33;;;;;;;7.87;7.17;;;10.00;99.90;;;;;;5452068;26;20436;-62
2024/04/18 03:53:59;;;;;;;8.30;7.50;;;10.00;99.90;;;;;;5452879;26;20773;-62
2024/04/18 03:56:25;;;;;;;8.57;7.50;;;10.00;99.90;;;;;;5452583;26;20507;-62
2024/04/18 03:58:52;;;;;;;8.77;7.97;;;10.00;99.90;;;;;;5451947;26;21117;-62
2024/04/18 04:01:18;;;;;;;8.97;8.10;;;9.90;99.90;;;;;;5452081;26;20483;-61
2024/04/18 04:03:44;;;;;;;9.47;8.10;;;9.90;99.90;;;;;;5420081;26;20455;-62
2024/04/18 04:06:10;;;;;;;9.03;8.13;;;9.90;99.90;;;;;;5421204;26;20983;-62
2024/04/18 04:08:35;;;;;;;8.60;7.70;;;9.90;99.90;;;;;;5450470;26;20468;-62
2024/04/18 04:11:01;;;;;;;8.30;7.50;;;9.90;99.90;;;;;;5450831;26;20278;-62
2024/04/18 04:13:27;;;;;;;7.10;6.50;;;9.90;99.90;;;;;;5452270;26;20300;-62
2024/04/18 04:15:54;;;;;;;8.30;7.57;;;9.90;99.90;;;;;;5419096;26;20276;-62
2024/04/18 04:18:20;;;;;;;8.57;7.73;;;9.90;99.90;;;;;;5451662;26;20295;-62
2024/04/18 04:20:45;;;;;;;8.80;7.90;;;9.80;99.90;;;;;;5451246;26;20439;-62
2024/04/18 04:23:11;;;;;;;9.23;8.30;;;9.80;99.90;;;;;;5452069;26;20279;-62
2024/04/18 04:25:37;;;;;;;9.73;8.83;;;9.80;99.90;;;;;;5451610;26;20819;-62
2024/04/18 04:28:02;;;;;;;9.17;8.30;;;9.80;99.90;;;;;;5452155;26;20236;-62
2024/04/18 04:30:28;;;;;;;8.93;7.80;;;9.90;99.90;;;;;;5452067;26;20332;-62
2024/04/18 04:32:54;;;;;;;8.97;8.07;;;9.80;99.90;;;;;;5451406;26;20494;-62
2024/04/18 04:35:20;;;;;;;8.57;7.77;;;9.80;99.90;;;;;;5451807;26;20226;-62
2024/04/18 04:37:45;;;;;;;9.97;8.50;;;9.80;99.90;;;;;;5451082;26;20264;-62
2024/04/18 04:40:11;;;;;;;7.80;7.13;;;9.80;99.90;;;;;;5452221;26;20240;-62
2024/04/18 04:42:37;;;;;;;8.27;7.57;;;9.80;99.90;;;;;;5450547;26;20240;-62
2024/04/18 04:45:03;;;;;;;9.10;8.20;;;9.90;99.90;;;;;;5451554;26;20331;-62
2024/04/18 04:47:28;;;;;;;8.67;7.53;;;9.80;99.90;;;;;;5451526;26;20250;-62
2024/04/18 04:49:54;;;;;;;8.40;7.70;;;9.80;99.90;;;;;;5450698;26;20447;-61
2024/04/18 04:52:20;;;;;;;8.23;7.43;;;9.80;99.90;;;;;;5451456;26;20366;-62
2024/04/18 04:54:46;;;;;;;9.07;8.17;;;9.90;99.90;;;;;;5450842;26;20298;-62
2024/04/18 04:57:13;;;;;;;8.90;7.90;;;9.80;99.90;;;;;;5451109;26;20281;-61
2024/04/18 04:59:39;;;;;;;8.93;6.83;;;9.80;99.90;;;;;;5423433;26;20528;-62
2024/04/18 05:02:05;;;;;;;7.37;6.70;;;9.80;99.90;;;;;;5451551;26;20461;-62
2024/04/18 05:04:31;;;;;;;7.30;6.60;;;9.80;99.90;;;;;;5451680;26;20484;-62
2024/04/18 05:06:56;;;;;;;7.40;6.30;;;9.80;99.90;;;;;;5450494;26;20549;-62
2024/04/18 05:09:22;;;;;;;8.03;7.23;;;9.80;99.90;;;;;;5451914;26;20275;-62
2024/04/18 05:11:49;;;;;;;7.80;6.83;;;9.80;99.90;;;;;;5418116;26;20244;-62
2024/04/18 05:14:15;;;;;;;7.80;7.00;;;9.80;99.90;;;;;;5451155;26;20443;-62
2024/04/18 05:16:41;;;;;;;9.27;7.70;;;9.80;99.90;;;;;;5450844;26;20499;-62
2024/04/18 05:19:06;;;;;;;7.93;7.17;;;9.80;99.90;;;;;;5413359;26;20486;-62
2024/04/18 05:21:32;;;;;;;8.37;7.57;;;9.80;99.90;;;;;;5417530;26;20221;-62
2024/04/18 05:23:58;;;;;;;8.83;7.50;;;9.80;99.90;;;;;;5418464;26;20234;-62
2024/04/18 05:26:31;;;;;;;9.60;7.77;;;9.80;99.90;;;;;;5418913;26;20555;-62
2024/04/18 05:31:42;;;;;;;9.00;8.20;;;9.90;99.90;;;;;;5418218;26;20515;-62
2024/04/18 05:34:07;;;;;;;8.57;7.57;;;9.90;99.90;;;;;;5417241;26;20507;-62
2024/04/18 05:36:33;;;;;;;8.30;7.53;;;9.90;99.90;;;;;;5418213;26;20947;-62
2024/04/18 05:38:59;;;;;;;9.50;7.60;;;9.90;99.90;;;;;;5418116;26;20323;-62
2024/04/18 05:41:28;;;;;;;7.67;6.97;;;10.00;99.90;;;;;;5418668;26;20505;-62
2024/04/18 05:43:54;;;;;;;8.80;7.67;;;9.90;99.90;;;;;;5418380;26;20268;-62
2024/04/18 05:46:20;;;;;;;10.13;7.70;;;9.90;99.90;;;;;;5417073;26;20512;-61
2024/04/18 05:48:45;;;;;;;8.07;7.27;;;10.00;99.90;;;;;;5417811;26;20524;-62
2024/04/18 05:51:11;;;;;;;7.07;6.47;;;10.00;99.90;;;;;;5418747;26;20224;-62
2024/04/18 05:53:37;;;;;;;7.73;7.13;;;10.00;99.90;;;;;;5419088;26;20625;-62
2024/04/18 05:56:03;;;;;;;7.73;7.00;;;10.00;99.90;;;;;;5418941;26;20219;-62
2024/04/18 05:58:29;;;;;;;7.80;6.70;;;10.00;99.90;;;;;;5418508;26;20956;-67
2024/04/18 06:00:55;;;;;;;7.93;7.13;;;10.10;99.90;;;;;;5417735;26;20663;-66
2024/04/18 06:03:21;;;;;;;6.20;5.60;;;10.50;99.90;;;;;;5418944;26;20269;-67
2024/04/18 06:05:47;;;;;;;6.77;6.03;;;11.00;99.90;;;;;;5418128;26;20436;-66
2024/04/18 06:08:13;;;;;;;6.80;5.50;;;11.50;99.90;;;;;;5418600;26;20769;-69
2024/04/18 06:10:40;;;;;;;5.63;5.13;;;12.00;99.90;;;;;;5418262;26;20240;-65
2024/04/18 06:13:07;;;;;;;6.27;5.77;;;12.50;99.90;;;;;;5418286;26;20522;-70
2024/04/18 06:15:34;;;;;;;6.40;5.90;;;12.90;99.90;;;;;;5418423;26;20541;-63
2024/04/18 06:18:00;;;;;;;6.57;5.87;;;13.20;99.90;;;;;;5417234;26;20483;-64
2024/04/18 06:20:27;;;;;;;6.30;5.60;;;13.50;99.90;;;;;;5385972;26;20570;-63
2024/04/18 06:22:53;;;;;;;8.73;5.50;;;13.80;99.90;;;;;;5418366;26;20841;-63
2024/04/18 06:25:18;;;;;;;5.90;5.37;;;14.00;99.90;;;;;;5417486;26;20515;-67
2024/04/18 06:27:44;;;;;;;13.80;6.03;;;14.20;99.90;;;;;;5417097;26;20567;-63
2024/04/18 06:30:11;;;;;;;5.80;4.93;;;14.30;99.90;;;;;;5417578;26;20296;-64
2024/04/18 06:32:37;;;;;;;5.70;5.20;;;14.40;99.90;;;;;;5417007;26;20565;-64
2024/04/18 06:35:04;;;;;;;7.00;6.30;;;14.60;99.90;;;;;;5417452;26;20953;-65
2024/04/18 06:37:29;;;;;;;6.13;5.43;;;14.80;99.90;;;;;;5417152;26;20459;-63
2024/04/18 06:39:55;;;;;;;13.93;10.33;;;14.80;99.90;;;;;;5385859;26;20634;-63
2024/04/18 06:42:21;;;;;;;7.83;6.97;;;15.00;99.90;;;;;;5395155;26;20273;-63
2024/04/18 06:44:47;;;;;;;23.27;15.17;;;15.00;99.90;;;;;;5386385;26;20215;-63
2024/04/18 06:47:12;;;;;;;9.50;7.10;;;15.00;99.90;;;;;;5417750;26;20646;-63
2024/04/18 06:49:38;;;;;;;8.60;6.90;;;15.10;99.90;;;;;;5416769;26;20233;-63
2024/04/18 06:52:04;;;;;;;6.17;5.50;;;15.20;99.90;;;;;;5415868;26;20740;-63
2024/04/18 06:54:29;;;;;;;10.60;5.90;;;15.20;99.90;;;;;;5417968;26;20227;-63
2024/04/18 06:56:55;;;;;;;7.17;6.57;;;15.20;99.90;;;;;;5416237;26;20337;-68
2024/04/18 06:59:21;;;;;;;15.77;9.10;;;15.30;99.90;;;;;;5417209;26;20238;-63
2024/04/18 07:01:47;;;;;;;9.70;8.70;;;15.40;99.90;;;;;;5415113;26;20280;-66
2024/04/18 07:04:13;;;;;;;8.67;7.20;;;15.40;99.90;;;;;;5416248;26;20258;-63
2024/04/18 07:06:38;;;;;;;7.93;7.13;;;15.50;99.90;;;;;;5417161;26;20987;-64
2024/04/18 07:09:04;;;;;;;11.23;6.10;;;15.60;99.90;;;;;;5381618;26;20223;-64
2024/04/18 07:11:30;;;;;;;7.43;6.40;;;15.60;99.90;;;;;;5386217;26;20688;-64
2024/04/18 07:13:55;;;;;;;6.37;5.60;;;15.60;99.90;;;;;;5385517;26;20717;-64
2024/04/18 07:16:21;;;;;;;7.67;6.97;;;15.70;99.90;;;;;;5417652;26;20279;-64
2024/04/18 07:18:47;;;;;;;7.53;6.83;;;15.70;99.90;;;;;;5433534;26;20285;-61
2024/04/18 07:21:16;;;;;;;6.57;5.90;;;15.70;98.00;;;;;;5453544;26;20885;-61
2024/04/18 07:23:42;;;;;;;9.10;8.20;;;15.40;94.70;;;;;;5452009;26;20293;-62
2024/04/18 07:26:07;;;;;;;7.00;6.43;;;15.10;93.10;;;;;;5452143;26;20512;-62
2024/04/18 07:28:33;;;;;;;6.93;6.23;;;14.70;93.40;;;;;;5453528;26;20293;-61
2024/04/18 07:30:59;;;;;;;8.53;7.73;;;14.30;94.30;;;;;;5452642;26;20219;-61
2024/04/18 07:33:25;;;;;;;7.70;6.60;;;13.90;94.80;;;;;;5453143;26;20839;-61
2024/04/18 07:36:00;;;;;;;6.80;6.13;;;13.50;97.20;;;;;;5452663;26;20446;-61
2024/04/18 07:38:27;;;;;;;6.40;5.67;;;13.10;98.70;;;;;;5452742;26;20446;-61
2024/04/18 07:40:52;;;;;;;7.53;6.90;;;12.80;99.90;;;;;;5451883;26;20532;-61
2024/04/18 07:43:18;;;;;;;8.60;7.87;;;12.60;99.90;;;;;;5451714;26;20441;-61
2024/04/18 07:45:44;;;;;;;8.33;7.57;;;12.40;99.90;;;;;;5452819;26;20232;-61
2024/04/18 07:48:11;;;;;;;8.97;7.30;;;12.30;99.90;;;;;;5453137;26;20254;-61
2024/04/18 07:50:36;;;;;;;8.50;7.70;;;12.10;99.90;;;;;;5421384;26;20472;-61
2024/04/18 07:53:02;;;;;;;8.20;7.50;;;12.10;99.90;;;;;;5451445;26;20609;-61
2024/04/18 07:55:28;;;;;;;8.43;7.70;;;12.00;99.90;;;;;;5453183;26;20230;-61
2024/04/18 07:57:53;;;;;;;8.00;7.33;;;11.90;99.90;;;;;;5450933;26;20297;-62
2024/04/18 08:00:19;;;;;;;8.00;6.43;;;11.80;99.90;;;;;;5451640;26;20230;-61
2024/04/18 08:02:45;;;;;;;8.47;5.33;;;11.70;99.90;;;;;;5452480;26;20237;-61
2024/04/18 08:05:11;;;;;;;5.57;5.03;;;11.60;99.90;;;;;;5453293;26;20320;-62
2024/04/18 08:07:37;;;;;;;5.17;4.77;;;11.50;99.90;;;;;;5452926;26;20438;-61
2024/04/18 08:10:03;;;;;;;5.43;4.93;;;11.60;99.90;;;;;;5420711;26;20621;-61
2024/04/18 08:12:29;;;;;;;7.20;5.23;;;11.50;99.90;;;;;;5452040;26;20455;-61
2024/04/18 08:14:55;;;;;;;6.13;5.00;;;11.50;99.90;;;;;;5452287;26;20545;-61
2024/04/18 08:17:21;;;;;;;6.63;4.47;;;11.50;99.90;;;;;;5452739;26;20263;-61
2024/04/18 08:19:46;;;;;;;26.40;9.47;;;11.50;99.90;;;;;;5420504;26;20242;-63
2024/04/18 08:22:12;;;;;;;15.70;6.60;;;11.50;99.90;;;;;;5416216;26;20231;-63
2024/04/18 08:24:38;;;;;;;5.00;3.90;;;11.50;99.90;;;;;;5415962;26;20511;-63
2024/04/18 08:27:04;;;;;;;8.20;5.53;;;11.40;99.90;;;;;;5384488;26;20297;-61
2024/04/18 08:29:30;;;;;;;5.80;5.20;;;11.30;99.90;;;;;;5415508;26;20434;-64
2024/04/18 08:31:55;;;;;;;5.43;4.97;;;11.30;99.90;;;;;;5415797;26;20479;-63
2024/04/18 08:34:21;;;;;;;5.83;4.60;;;11.30;99.90;;;;;;5416598;26;20267;-61
2024/04/18 08:36:47;;;;;;;7.50;5.00;;;11.40;99.90;;;;;;5416472;26;20338;-63
2024/04/18 08:39:15;;;;;;;5.60;5.00;;;11.40;99.90;;;;;;5415768;26;20287;-63
2024/04/18 08:41:42;;;;;;;5.60;5.10;;;11.50;99.90;;;;;;5384073;26;20591;-63
2024/04/18 08:44:09;;;;;;;6.37;5.87;;;11.60;99.90;;;;;;5415894;26;20676;-62
2024/04/18 08:46:36;;;;;;;7.07;5.70;;;11.60;99.90;;;;;;5416121;26;20574;-61
2024/04/18 08:49:05;;;;;;;7.50;5.27;;;11.70;99.90;;;;;;5414543;26;20467;-62
2024/04/18 08:51:37;;;;;;;7.27;6.57;;;11.70;99.90;;;;;;5415403;26;20509;-61
2024/04/18 08:54:04;;;;;;;7.10;6.40;;;11.80;99.90;;;;;;5413933;26;20523;-61
2024/04/18 08:56:33;;;;;;;7.07;6.37;;;11.70;99.90;;;;;;5417924;26;20519;-61
2024/04/18 08:58:59;;;;;;;7.10;6.50;;;11.70;99.90;;;;;;5418876;26;20438;-61
2024/04/18 09:01:25;;;;;;;10.03;6.60;;;11.80;99.90;;;;;;5419759;26;20431;-61
2024/04/18 09:03:58;;;;;;;7.57;6.67;;;11.90;99.90;;;;;;5418748;26;20497;-62
2024/04/18 09:06:24;;;;;;;7.57;5.60;;;11.90;99.90;;;;;;5419650;26;21081;-61
2024/04/18 09:08:54;;;;;;;5.37;4.93;;;11.90;99.90;;;;;;5418724;26;20504;-64
2024/04/18 09:11:20;;;;;;;6.73;5.73;;;11.90;99.90;;;;;;5419000;26;21048;-61
2024/04/18 09:13:46;;;;;;;5.60;5.20;;;12.00;99.90;;;;;;5419639;26;20490;-61
2024/04/18 09:16:12;;;;;;;6.10;5.57;;;12.10;99.90;;;;;;5418803;26;20224;-61
2024/04/18 09:18:38;;;;;;;8.90;6.67;;;12.30;99.90;;;;;;5433772;26;20471;-61
2024/04/18 09:21:13;;;;;;;6.97;6.37;;;12.40;99.90;;;;;;5454671;26;20438;-61
2024/04/18 09:23:40;;;;;;;6.00;5.57;;;12.50;99.90;;;;;;5455273;26;20831;-61
2024/04/18 09:26:05;;;;;;;6.90;6.50;;;12.60;99.90;;;;;;5454409;26;20815;-61
2024/04/18 09:28:32;;;;;;;5.70;5.27;;;12.70;99.90;;;;;;5455261;26;20486;-61
2024/04/18 09:30:58;;;;;;;7.33;6.73;;;12.70;99.90;;;;;;5454509;26;20279;-61
2024/04/18 09:33:25;;;;;;;6.80;6.20;;;12.80;99.90;;;;;;5454915;26;20442;-61
2024/04/18 09:35:56;;;;;;;6.73;6.33;;;12.80;99.90;;;;;;5455051;26;20732;-61
2024/04/18 09:38:22;;;;;;;6.60;5.80;;;12.80;99.90;;;;;;5455174;26;20477;-61
2024/04/18 09:41:07;;;;;;;7.47;6.60;;;12.80;99.90;;;;;;5423562;26;20981;-61
2024/04/18 09:43:48;;;;;;;6.13;5.73;;;13.10;99.90;;;;;;5454964;26;20436;-62
2024/04/18 09:46:15;;;;;;;6.60;6.10;;;13.30;98.70;;;;;;5454140;26;20435;-61
2024/04/18 09:48:42;;;;;;;7.07;6.57;;;13.40;99.90;;;;;;5454968;26;20561;-61
2024/04/18 09:51:09;;;;;;;7.33;6.83;;;13.50;99.70;;;;;;5454184;26;20908;-62
2024/04/18 09:53:35;;;;;;;7.97;7.27;;;13.50;97.10;;;;;;5455039;26;20494;-61
2024/04/18 09:56:01;;;;;;;6.97;6.33;;;13.60;99.40;;;;;;5454320;26;20432;-62
2024/04/18 09:58:28;;;;;;;7.40;6.80;;;13.60;96.60;;;;;;5454864;26;20442;-62
2024/04/18 10:00:55;;;;;;;6.50;6.10;;;13.60;95.20;;;;;;5422680;26;20447;-63
2024/04/18 10:03:21;;;;;;;7.20;6.70;;;13.60;95.50;;;;;;5454616;26;20498;-61
2024/04/18 10:05:50;;;;;;;6.00;5.17;;;13.50;95.60;;;;;;5454947;26;20435;-61
2024/04/18 10:08:20;;;;;;;7.67;6.97;;;13.40;96.30;;;;;;5453897;26;20274;-62
2024/04/18 10:10:46;;;;;;;5.10;4.80;;;13.30;96.90;;;;;;5454706;26;20454;-61
2024/04/18 10:13:12;;;;;;;5.10;4.80;;;13.20;96.20;;;;;;5453895;26;20442;-61
2024/04/18 10:15:38;;;;;;;5.77;5.07;;;13.10;97.50;;;;;;5454636;26;20516;-61
2024/04/18 10:18:18;;;;;;;6.63;4.90;;;13.10;97.90;;;;;;5421751;26;20550;-62
2024/04/18 10:20:44;;;;;;;4.80;4.50;;;13.00;98.10;;;;;;5424341;26;20217;-61
2024/04/18 10:23:14;;;;;;;6.23;5.57;;;13.00;98.30;;;;;;5453962;26;20534;-62
2024/04/18 10:25:40;;;;;;;4.83;4.43;;;13.00;98.20;;;;;;5454911;26;20549;-62
2024/04/18 10:28:29;;;;;;;4.50;4.20;;;13.00;98.40;;;;;;5454080;26;20434;-62
2024/04/18 10:31:03;;;;;;;4.90;3.90;;;13.00;96.70;;;;;;5453991;26;20424;-65
2024/04/18 10:33:31;;;;;;;4.63;4.23;;;13.00;96.00;;;;;;5454563;26;20438;-61
2024/04/18 10:35:57;;;;;;;13.93;4.50;;;13.00;96.60;;;;;;5453716;26;20553;-62
2024/04/18 10:38:25;;;;;;;5.40;4.33;;;13.10;98.20;;;;;;5454285;26;20836;-62
2024/04/18 10:41:03;;;;;;;4.83;4.43;;;13.10;97.10;;;;;;5454437;26;20444;-62
2024/04/18 10:43:31;;;;;;;4.30;4.00;;;13.20;95.70;;;;;;5454206;26;20490;-62
2024/04/18 10:46:00;;;;;;;3.40;3.20;;;13.30;96.60;;;;;;5451981;26;20507;-62
2024/04/18 10:48:26;;;;;;;3.60;3.30;;;13.30;96.40;;;;;;5452890;26;20553;-61
2024/04/18 10:50:52;;;;;;;7.53;3.97;;;13.40;96.10;;;;;;5453199;26;20432;-62
2024/04/18 10:53:19;;;;;;;4.00;3.70;;;13.50;96.10;;;;;;5452671;26;20428;-61
2024/04/18 10:55:45;;;;;;;3.57;3.30;;;13.50;95.00;;;;;;5454103;26;20762;-62
2024/04/18 10:58:12;;;;;;;4.27;3.97;;;13.60;93.50;;;;;;5453310;26;20437;-62
2024/04/18 11:00:43;;;;;;;5.83;3.70;;;13.70;95.00;;;;;;5453894;26;20453;-62
2024/04/18 11:03:09;;;;;;;3.53;3.30;;;13.70;95.40;;;;;;5453092;26;20493;-62
2024/04/18 11:05:37;;;;;;;3.60;3.30;;;13.80;93.70;;;;;;5422415;26;20501;-61
2024/04/18 11:08:04;;;;;;;3.00;2.90;;;13.80;93.90;;;;;;5421562;26;20440;-62
2024/04/18 11:10:31;;;;;;;3.50;3.10;;;13.90;95.00;;;;;;5453803;26;20542;-62
2024/04/18 11:12:57;;;;;;;3.50;3.20;;;14.00;94.90;;;;;;5453898;26;20562;-61
2024/04/18 11:15:23;;;;;;;3.20;3.00;;;14.10;93.40;;;;;;5453791;26;20449;-62
2024/04/18 11:17:49;;;;;;;4.57;4.17;;;14.20;92.20;;;;;;5450401;26;20463;-62
2024/04/18 11:20:15;;;;;;;3.43;3.23;;;14.40;93.00;;;;;;5417119;26;20752;-61
2024/04/18 11:22:41;;;;;;;3.90;3.60;;;14.60;94.70;;;;;;5386725;26;20479;-62
2024/04/18 11:25:07;;;;;;;3.87;3.57;;;14.70;93.20;;;;;;5386030;26;20332;-62
2024/04/18 11:27:39;;;;;;;4.10;3.70;;;14.70;91.80;;;;;;5417939;26;20269;-62
2024/04/18 11:30:06;;;;;;;3.47;3.20;;;14.80;91.40;;;;;;5417395;26;20480;-61
2024/04/18 11:32:32;;;;;;;4.83;3.20;;;14.80;91.10;;;;;;5417912;26;20817;-61
2024/04/18 11:34:58;;;;;;;3.77;3.47;;;14.80;90.60;;;;;;5417900;26;20552;-61
2024/04/18 11:37:24;;;;;;;3.73;3.63;;;14.80;90.30;;;;;;5417724;26;20493;-61
2024/04/18 11:39:50;;;;;;;4.03;3.83;;;15.00;92.40;;;;;;5386110;26;20436;-61
2024/04/18 11:42:16;;;;;;;4.87;4.57;;;15.10;90.30;;;;;;5416730;26;20222;-61
2024/04/18 11:44:42;;;;;;;5.30;4.90;;;15.10;86.80;;;;;;5417570;26;20215;-61
2024/04/18 11:47:08;;;;;;;4.50;4.07;;;15.20;84.30;;;;;;5416464;26;20683;-61
2024/04/18 11:49:33;;;;;;;4.57;4.17;;;15.20;84.80;;;;;;5417615;26;20437;-61
2024/04/18 11:51:59;;;;;;;4.80;4.50;;;15.10;85.20;;;;;;5417249;26;20223;-68
2024/04/18 11:54:25;;;;;;;5.80;5.40;;;15.00;85.30;;;;;;5386012;26;20273;-61
2024/04/18 11:56:51;;;;;;;5.43;4.23;;;14.90;87.30;;;;;;5417240;26;20528;-61
2024/04/18 11:59:17;;;;;;;4.77;4.40;;;14.80;88.00;;;;;;5416604;26;20256;-61
2024/04/18 12:01:43;;;;;;;4.80;4.03;;;14.70;87.20;;;;;;5417139;26;20448;-61
2024/04/18 12:04:10;;;;;;;3.70;3.30;;;14.60;86.80;;;;;;5416706;26;20715;-61
2024/04/18 12:06:36;;;;;;;5.80;4.27;;;14.60;85.40;;;;;;5385352;26;20232;-61
2024/04/18 12:09:03;;;;;;;4.20;4.00;;;14.60;84.00;;;;;;5416434;26;20974;-62
2024/04/18 12:11:30;;;;;;;3.97;3.67;;;14.60;83.50;;;;;;5417009;26;20972;-61
2024/04/18 12:13:56;;;;;;;4.83;4.63;;;14.70;86.10;;;;;;5416967;26;20508;-61
2024/04/18 12:16:22;;;;;;;4.27;4.07;;;15.00;84.80;;;;;;5416369;26;20433;-61
2024/04/18 12:18:50;;;;;;;4.37;4.17;;;15.20;81.40;;;;;;5402315;26;20482;-61
2024/04/18 12:21:16;;;;;;;4.30;4.00;;;15.40;79.90;;;;;;5451815;26;20444;-61
2024/04/18 12:23:42;;;;;;;3.70;3.50;;;15.50;78.50;;;;;;5452819;26;20557;-61
2024/04/18 12:26:12;;;;;;;3.47;3.30;;;15.50;76.50;;;;;;5451992;26;20218;-61
2024/04/18 12:28:38;;;;;;;3.03;2.83;;;15.60;76.70;;;;;;5420889;26;20444;-61
2024/04/18 12:31:03;;;;;;;4.60;4.20;;;15.70;76.80;;;;;;5450074;26;20514;-61
2024/04/18 12:33:29;;;;;;;4.70;4.30;;;16.00;75.30;;;;;;5452371;26;20432;-61
2024/04/18 12:35:55;;;;;;;5.30;4.03;;;16.10;71.30;;;;;;5421061;26;20264;-61
2024/04/18 12:38:21;;;;;;;3.97;3.77;;;16.20;67.90;;;;;;5451782;26;20260;-61
2024/04/18 12:40:47;;;;;;;3.40;3.10;;;16.00;65.00;;;;;;5452648;26;20218;-61
2024/04/18 12:43:16;;;;;;;3.53;3.33;;;15.80;62.90;;;;;;5451629;26;20251;-61